sensor_id;sensor_type;location;lat;lon;timestamp;P1;durP1;ratioP1;P2;durP2;ratioP2
27365;SDS011;14837;57.148;-2.144;2023-06-14T00:02:19;7.38;;;5.38;;
27365;SDS011;14837;57.148;-2.144;2023-06-14T00:04:45;5.88;;;5.30;;
27365;SDS011;14837;57.148;-2.144;2023-06-14T00:07:14;6.50;;;5.22;;
27365;SDS011;14837;57.148;-2.144;2023-06-14T00:09:43;7.18;;;5.22;;
27365;SDS011;14837;57.148;-2.144;2023-06-14T00:12:09;7.05;;;5.68;;
27365;SDS011;14837;57.148;-2.144;2023-06-14T00:14:36;7.70;;;5.60;;
27365;SDS011;14837;57.148;-2.144;2023-06-14T00:17:02;8.43;;;5.28;;
27365;SDS011;14837;57.148;-2.144;2023-06-14T00:19:29;6.82;;;4.75;;
27365;SDS011;14837;57.148;-2.144;2023-06-14T00:21:59;6.40;;;5.30;;
27365;SDS011;14837;57.148;-2.144;2023-06-14T00:24:26;11.48;;;5.72;;
27365;SDS011;14837;57.148;-2.144;2023-06-14T00:26:52;6.68;;;4.95;;
27365;SDS011;14837;57.148;-2.144;2023-06-14T00:29:19;9.10;;;5.43;;
27365;SDS011;14837;57.148;-2.144;2023-06-14T00:31:46;8.20;;;4.95;;
27365;SDS011;14837;57.148;-2.144;2023-06-14T00:34:12;8.70;;;5.47;;
27365;SDS011;14837;57.148;-2.144;2023-06-14T00:36:39;5.10;;;4.60;;
27365;SDS011;14837;57.148;-2.144;2023-06-14T00:39:05;8.68;;;6.05;;
27365;SDS011;14837;57.148;-2.144;2023-06-14T00:41:32;8.20;;;5.45;;
27365;SDS011;14837;57.148;-2.144;2023-06-14T00:43:58;6.30;;;5.13;;
27365;SDS011;14837;57.148;-2.144;2023-06-14T00:46:26;8.85;;;5.85;;
27365;SDS011;14837;57.148;-2.144;2023-06-14T00:48:53;8.52;;;5.03;;
27365;SDS011;14837;57.148;-2.144;2023-06-14T00:51:20;10.52;;;5.90;;
27365;SDS011;14837;57.148;-2.144;2023-06-14T00:53:46;7.90;;;6.28;;
27365;SDS011;14837;57.148;-2.144;2023-06-14T00:56:14;11.43;;;6.25;;
27365;SDS011;14837;57.148;-2.144;2023-06-14T00:58:41;5.93;;;5.28;;
27365;SDS011;14837;57.148;-2.144;2023-06-14T01:01:08;9.57;;;5.85;;
27365;SDS011;14837;57.148;-2.144;2023-06-14T01:03:35;10.95;;;6.28;;
27365;SDS011;14837;57.148;-2.144;2023-06-14T01:06:05;9.48;;;5.95;;
27365;SDS011;14837;57.148;-2.144;2023-06-14T01:11:24;11.85;;;6.35;;
27365;SDS011;14837;57.148;-2.144;2023-06-14T01:13:52;7.88;;;6.32;;
27365;SDS011;14837;57.148;-2.144;2023-06-14T01:16:19;9.68;;;5.75;;
27365;SDS011;14837;57.148;-2.144;2023-06-14T01:18:46;7.68;;;6.57;;
27365;SDS011;14837;57.148;-2.144;2023-06-14T01:21:21;9.10;;;6.35;;
27365;SDS011;14837;57.148;-2.144;2023-06-14T01:23:48;7.53;;;5.40;;
27365;SDS011;14837;57.148;-2.144;2023-06-14T01:26:20;6.70;;;6.03;;
27365;SDS011;14837;57.148;-2.144;2023-06-14T01:28:48;8.95;;;5.95;;
27365;SDS011;14837;57.148;-2.144;2023-06-14T01:31:19;10.85;;;7.10;;
27365;SDS011;14837;57.148;-2.144;2023-06-14T01:33:48;6.97;;;5.97;;
27365;SDS011;14837;57.148;-2.144;2023-06-14T01:36:16;7.18;;;6.25;;
27365;SDS011;14837;57.148;-2.144;2023-06-14T01:38:44;9.30;;;6.82;;
27365;SDS011;14837;57.148;-2.144;2023-06-14T01:41:12;10.45;;;6.35;;
27365;SDS011;14837;57.148;-2.144;2023-06-14T01:43:39;8.85;;;6.22;;
27365;SDS011;14837;57.148;-2.144;2023-06-14T01:46:06;8.27;;;6.25;;
27365;SDS011;14837;57.148;-2.144;2023-06-14T01:48:34;10.05;;;6.55;;
27365;SDS011;14837;57.148;-2.144;2023-06-14T01:51:01;9.30;;;6.63;;
27365;SDS011;14837;57.148;-2.144;2023-06-14T01:53:27;10.18;;;6.85;;
27365;SDS011;14837;57.148;-2.144;2023-06-14T01:55:54;9.50;;;6.25;;
27365;SDS011;14837;57.148;-2.144;2023-06-14T01:58:21;11.43;;;6.85;;
27365;SDS011;14837;57.148;-2.144;2023-06-14T02:00:48;11.02;;;6.93;;
27365;SDS011;14837;57.148;-2.144;2023-06-14T02:03:15;10.23;;;6.80;;
27365;SDS011;14837;57.148;-2.144;2023-06-14T02:05:41;8.38;;;6.63;;
27365;SDS011;14837;57.148;-2.144;2023-06-14T02:08:08;12.52;;;7.78;;
27365;SDS011;14837;57.148;-2.144;2023-06-14T02:10:34;9.38;;;6.18;;
27365;SDS011;14837;57.148;-2.144;2023-06-14T02:13:02;9.50;;;7.45;;
27365;SDS011;14837;57.148;-2.144;2023-06-14T02:15:29;8.40;;;6.80;;
27365;SDS011;14837;57.148;-2.144;2023-06-14T02:18:03;8.52;;;7.13;;
27365;SDS011;14837;57.148;-2.144;2023-06-14T02:20:30;9.20;;;6.88;;
27365;SDS011;14837;57.148;-2.144;2023-06-14T02:22:57;8.18;;;6.15;;
27365;SDS011;14837;57.148;-2.144;2023-06-14T02:25:24;10.30;;;7.50;;
27365;SDS011;14837;57.148;-2.144;2023-06-14T02:27:51;9.10;;;7.28;;
27365;SDS011;14837;57.148;-2.144;2023-06-14T02:30:17;11.60;;;8.43;;
27365;SDS011;14837;57.148;-2.144;2023-06-14T02:32:44;9.70;;;7.00;;
27365;SDS011;14837;57.148;-2.144;2023-06-14T02:35:11;10.40;;;6.97;;
27365;SDS011;14837;57.148;-2.144;2023-06-14T02:37:37;9.93;;;7.50;;
27365;SDS011;14837;57.148;-2.144;2023-06-14T02:40:04;12.52;;;7.15;;
27365;SDS011;14837;57.148;-2.144;2023-06-14T02:42:32;12.13;;;7.30;;
27365;SDS011;14837;57.148;-2.144;2023-06-14T02:44:58;7.47;;;6.78;;
27365;SDS011;14837;57.148;-2.144;2023-06-14T02:47:25;11.68;;;7.20;;
27365;SDS011;14837;57.148;-2.144;2023-06-14T02:49:52;8.52;;;7.00;;
27365;SDS011;14837;57.148;-2.144;2023-06-14T02:52:18;10.00;;;7.57;;
27365;SDS011;14837;57.148;-2.144;2023-06-14T02:54:45;10.20;;;6.20;;
27365;SDS011;14837;57.148;-2.144;2023-06-14T02:57:13;9.45;;;6.57;;
27365;SDS011;14837;57.148;-2.144;2023-06-14T02:59:40;8.95;;;6.47;;
27365;SDS011;14837;57.148;-2.144;2023-06-14T03:02:06;11.10;;;7.45;;
27365;SDS011;14837;57.148;-2.144;2023-06-14T03:04:33;11.00;;;6.75;;
27365;SDS011;14837;57.148;-2.144;2023-06-14T03:07:04;7.20;;;6.45;;
27365;SDS011;14837;57.148;-2.144;2023-06-14T03:09:37;8.32;;;6.63;;
27365;SDS011;14837;57.148;-2.144;2023-06-14T03:12:04;8.32;;;6.63;;
27365;SDS011;14837;57.148;-2.144;2023-06-14T03:14:33;9.52;;;6.93;;
27365;SDS011;14837;57.148;-2.144;2023-06-14T03:16:59;11.75;;;6.90;;
27365;SDS011;14837;57.148;-2.144;2023-06-14T03:19:26;12.50;;;6.78;;
27365;SDS011;14837;57.148;-2.144;2023-06-14T03:21:53;9.57;;;7.10;;
27365;SDS011;14837;57.148;-2.144;2023-06-14T03:24:24;10.55;;;6.88;;
27365;SDS011;14837;57.148;-2.144;2023-06-14T03:26:50;7.10;;;6.38;;
27365;SDS011;14837;57.148;-2.144;2023-06-14T03:29:17;10.73;;;6.93;;
27365;SDS011;14837;57.148;-2.144;2023-06-14T03:31:56;10.32;;;6.20;;
27365;SDS011;14837;57.148;-2.144;2023-06-14T03:34:23;12.60;;;6.60;;
27365;SDS011;14837;57.148;-2.144;2023-06-14T03:36:49;11.30;;;6.63;;
27365;SDS011;14837;57.148;-2.144;2023-06-14T03:39:16;9.52;;;6.82;;
27365;SDS011;14837;57.148;-2.144;2023-06-14T03:41:43;8.80;;;6.50;;
27365;SDS011;14837;57.148;-2.144;2023-06-14T03:44:09;10.57;;;6.68;;
27365;SDS011;14837;57.148;-2.144;2023-06-14T03:46:36;10.27;;;6.70;;
27365;SDS011;14837;57.148;-2.144;2023-06-14T03:49:02;7.47;;;6.18;;
27365;SDS011;14837;57.148;-2.144;2023-06-14T03:51:29;9.43;;;7.15;;
27365;SDS011;14837;57.148;-2.144;2023-06-14T03:53:55;8.32;;;7.30;;
27365;SDS011;14837;57.148;-2.144;2023-06-14T03:56:42;10.18;;;7.07;;
27365;SDS011;14837;57.148;-2.144;2023-06-14T03:59:09;10.00;;;7.30;;
27365;SDS011;14837;57.148;-2.144;2023-06-14T04:01:35;9.20;;;7.10;;
27365;SDS011;14837;57.148;-2.144;2023-06-14T04:04:02;9.00;;;6.88;;
27365;SDS011;14837;57.148;-2.144;2023-06-14T04:06:29;6.97;;;6.10;;
27365;SDS011;14837;57.148;-2.144;2023-06-14T04:08:59;8.35;;;7.13;;
27365;SDS011;14837;57.148;-2.144;2023-06-14T04:11:30;8.43;;;6.93;;
27365;SDS011;14837;57.148;-2.144;2023-06-14T04:13:57;9.13;;;7.25;;
27365;SDS011;14837;57.148;-2.144;2023-06-14T04:16:24;9.73;;;6.25;;
27365;SDS011;14837;57.148;-2.144;2023-06-14T04:18:51;7.50;;;6.32;;
27365;SDS011;14837;57.148;-2.144;2023-06-14T04:21:18;10.88;;;7.32;;
27365;SDS011;14837;57.148;-2.144;2023-06-14T04:23:45;9.07;;;6.28;;
27365;SDS011;14837;57.148;-2.144;2023-06-14T04:26:11;10.48;;;7.30;;
27365;SDS011;14837;57.148;-2.144;2023-06-14T04:28:38;9.73;;;7.05;;
27365;SDS011;14837;57.148;-2.144;2023-06-14T04:31:07;7.43;;;6.57;;
27365;SDS011;14837;57.148;-2.144;2023-06-14T04:33:35;7.38;;;6.68;;
27365;SDS011;14837;57.148;-2.144;2023-06-14T04:36:10;15.07;;;7.75;;
27365;SDS011;14837;57.148;-2.144;2023-06-14T04:38:38;9.32;;;6.82;;
27365;SDS011;14837;57.148;-2.144;2023-06-14T04:41:04;7.78;;;6.70;;
27365;SDS011;14837;57.148;-2.144;2023-06-14T04:43:31;9.32;;;7.45;;
27365;SDS011;14837;57.148;-2.144;2023-06-14T04:46:05;12.25;;;6.97;;
27365;SDS011;14837;57.148;-2.144;2023-06-14T04:48:39;6.53;;;5.60;;
27365;SDS011;14837;57.148;-2.144;2023-06-14T04:51:07;7.78;;;6.50;;
27365;SDS011;14837;57.148;-2.144;2023-06-14T04:53:34;7.97;;;6.70;;
27365;SDS011;14837;57.148;-2.144;2023-06-14T04:56:00;9.80;;;6.47;;
27365;SDS011;14837;57.148;-2.144;2023-06-14T04:58:27;8.32;;;6.32;;
27365;SDS011;14837;57.148;-2.144;2023-06-14T05:00:55;12.95;;;7.43;;
27365;SDS011;14837;57.148;-2.144;2023-06-14T05:03:25;7.53;;;5.95;;
27365;SDS011;14837;57.148;-2.144;2023-06-14T05:05:53;9.68;;;7.10;;
27365;SDS011;14837;57.148;-2.144;2023-06-14T05:08:20;7.53;;;6.75;;
27365;SDS011;14837;57.148;-2.144;2023-06-14T05:10:50;7.20;;;6.07;;
27365;SDS011;14837;57.148;-2.144;2023-06-14T05:13:17;9.02;;;6.57;;
27365;SDS011;14837;57.148;-2.144;2023-06-14T05:15:44;11.90;;;7.28;;
27365;SDS011;14837;57.148;-2.144;2023-06-14T05:18:10;6.85;;;6.18;;
27365;SDS011;14837;57.148;-2.144;2023-06-14T05:20:37;9.43;;;7.22;;
27365;SDS011;14837;57.148;-2.144;2023-06-14T05:23:03;8.50;;;6.35;;
27365;SDS011;14837;57.148;-2.144;2023-06-14T05:25:30;7.85;;;7.05;;
27365;SDS011;14837;57.148;-2.144;2023-06-14T05:27:57;10.18;;;6.55;;
27365;SDS011;14837;57.148;-2.144;2023-06-14T05:30:23;12.00;;;5.70;;
27365;SDS011;14837;57.148;-2.144;2023-06-14T05:32:50;8.10;;;6.20;;
27365;SDS011;14837;57.148;-2.144;2023-06-14T05:35:17;8.68;;;6.10;;
27365;SDS011;14837;57.148;-2.144;2023-06-14T05:37:44;10.13;;;6.70;;
27365;SDS011;14837;57.148;-2.144;2023-06-14T05:40:11;11.00;;;6.60;;
27365;SDS011;14837;57.148;-2.144;2023-06-14T05:42:38;8.35;;;6.85;;
27365;SDS011;14837;57.148;-2.144;2023-06-14T05:45:04;8.63;;;6.20;;
27365;SDS011;14837;57.148;-2.144;2023-06-14T05:47:32;6.82;;;6.15;;
27365;SDS011;14837;57.148;-2.144;2023-06-14T05:49:59;6.65;;;5.30;;
27365;SDS011;14837;57.148;-2.144;2023-06-14T05:52:25;11.40;;;5.68;;
27365;SDS011;14837;57.148;-2.144;2023-06-14T05:54:52;6.78;;;5.63;;
27365;SDS011;14837;57.148;-2.144;2023-06-14T05:57:19;7.95;;;5.95;;
27365;SDS011;14837;57.148;-2.144;2023-06-14T05:59:45;5.97;;;5.38;;
27365;SDS011;14837;57.148;-2.144;2023-06-14T06:02:12;8.30;;;5.68;;
27365;SDS011;14837;57.148;-2.144;2023-06-14T06:04:39;9.07;;;5.97;;
27365;SDS011;14837;57.148;-2.144;2023-06-14T06:07:05;9.20;;;5.85;;
27365;SDS011;14837;57.148;-2.144;2023-06-14T06:09:32;7.53;;;4.78;;
27365;SDS011;14837;57.148;-2.144;2023-06-14T06:11:59;8.63;;;5.90;;
27365;SDS011;14837;57.148;-2.144;2023-06-14T06:14:25;10.20;;;6.30;;
27365;SDS011;14837;57.148;-2.144;2023-06-14T06:16:52;11.52;;;5.85;;
27365;SDS011;14837;57.148;-2.144;2023-06-14T06:19:19;8.55;;;6.22;;
27365;SDS011;14837;57.148;-2.144;2023-06-14T06:21:45;8.40;;;5.45;;
27365;SDS011;14837;57.148;-2.144;2023-06-14T06:24:12;8.20;;;5.53;;
27365;SDS011;14837;57.148;-2.144;2023-06-14T06:26:39;12.10;;;6.65;;
27365;SDS011;14837;57.148;-2.144;2023-06-14T06:29:06;8.52;;;6.45;;
27365;SDS011;14837;57.148;-2.144;2023-06-14T06:31:33;8.65;;;5.65;;
27365;SDS011;14837;57.148;-2.144;2023-06-14T06:34:00;7.30;;;5.85;;
27365;SDS011;14837;57.148;-2.144;2023-06-14T06:36:26;8.82;;;6.65;;
27365;SDS011;14837;57.148;-2.144;2023-06-14T06:38:53;8.20;;;5.55;;
27365;SDS011;14837;57.148;-2.144;2023-06-14T06:41:19;7.15;;;5.80;;
27365;SDS011;14837;57.148;-2.144;2023-06-14T06:43:46;10.63;;;6.43;;
27365;SDS011;14837;57.148;-2.144;2023-06-14T06:46:12;8.52;;;6.30;;
27365;SDS011;14837;57.148;-2.144;2023-06-14T06:48:40;12.13;;;6.95;;
27365;SDS011;14837;57.148;-2.144;2023-06-14T06:51:06;10.18;;;6.50;;
27365;SDS011;14837;57.148;-2.144;2023-06-14T06:53:33;11.35;;;6.47;;
27365;SDS011;14837;57.148;-2.144;2023-06-14T06:56:09;11.23;;;6.85;;
27365;SDS011;14837;57.148;-2.144;2023-06-14T06:58:36;11.25;;;6.28;;
27365;SDS011;14837;57.148;-2.144;2023-06-14T07:01:02;9.18;;;6.72;;
27365;SDS011;14837;57.148;-2.144;2023-06-14T07:03:29;8.85;;;6.72;;
27365;SDS011;14837;57.148;-2.144;2023-06-14T07:05:56;8.40;;;5.68;;
27365;SDS011;14837;57.148;-2.144;2023-06-14T07:08:23;8.55;;;6.10;;
27365;SDS011;14837;57.148;-2.144;2023-06-14T07:10:49;8.70;;;5.78;;
27365;SDS011;14837;57.148;-2.144;2023-06-14T07:13:16;8.60;;;6.10;;
27365;SDS011;14837;57.148;-2.144;2023-06-14T07:15:42;8.00;;;6.32;;
27365;SDS011;14837;57.148;-2.144;2023-06-14T07:18:09;8.85;;;6.00;;
27365;SDS011;14837;57.148;-2.144;2023-06-14T07:20:36;9.25;;;6.03;;
27365;SDS011;14837;57.148;-2.144;2023-06-14T07:23:04;8.27;;;5.55;;
27365;SDS011;14837;57.148;-2.144;2023-06-14T07:25:32;8.07;;;5.28;;
27365;SDS011;14837;57.148;-2.144;2023-06-14T07:27:58;7.32;;;5.78;;
27365;SDS011;14837;57.148;-2.144;2023-06-14T07:30:25;8.57;;;5.68;;
27365;SDS011;14837;57.148;-2.144;2023-06-14T07:32:53;9.05;;;5.95;;
27365;SDS011;14837;57.148;-2.144;2023-06-14T07:35:21;9.45;;;5.90;;
27365;SDS011;14837;57.148;-2.144;2023-06-14T07:37:47;9.30;;;6.07;;
27365;SDS011;14837;57.148;-2.144;2023-06-14T07:40:14;14.07;;;5.72;;
27365;SDS011;14837;57.148;-2.144;2023-06-14T07:42:40;6.50;;;5.13;;
27365;SDS011;14837;57.148;-2.144;2023-06-14T07:45:07;6.38;;;4.82;;
27365;SDS011;14837;57.148;-2.144;2023-06-14T07:47:34;6.35;;;5.07;;
27365;SDS011;14837;57.148;-2.144;2023-06-14T07:50:01;6.80;;;5.18;;
27365;SDS011;14837;57.148;-2.144;2023-06-14T07:52:27;6.63;;;5.18;;
27365;SDS011;14837;57.148;-2.144;2023-06-14T07:54:54;8.38;;;6.10;;
27365;SDS011;14837;57.148;-2.144;2023-06-14T07:57:21;8.65;;;6.22;;
27365;SDS011;14837;57.148;-2.144;2023-06-14T07:59:47;7.82;;;5.75;;
27365;SDS011;14837;57.148;-2.144;2023-06-14T08:02:14;6.60;;;5.20;;
27365;SDS011;14837;57.148;-2.144;2023-06-14T08:04:41;6.88;;;6.00;;
27365;SDS011;14837;57.148;-2.144;2023-06-14T08:07:08;8.00;;;5.57;;
27365;SDS011;14837;57.148;-2.144;2023-06-14T08:09:35;10.25;;;6.07;;
27365;SDS011;14837;57.148;-2.144;2023-06-14T08:12:07;7.95;;;5.80;;
27365;SDS011;14837;57.148;-2.144;2023-06-14T08:14:36;8.57;;;5.90;;
27365;SDS011;14837;57.148;-2.144;2023-06-14T08:17:02;7.18;;;5.75;;
27365;SDS011;14837;57.148;-2.144;2023-06-14T08:19:29;8.68;;;6.47;;
27365;SDS011;14837;57.148;-2.144;2023-06-14T08:21:56;6.97;;;5.28;;
27365;SDS011;14837;57.148;-2.144;2023-06-14T08:24:22;11.93;;;5.78;;
27365;SDS011;14837;57.148;-2.144;2023-06-14T08:26:53;8.27;;;6.63;;
27365;SDS011;14837;57.148;-2.144;2023-06-14T08:29:20;9.75;;;5.28;;
27365;SDS011;14837;57.148;-2.144;2023-06-14T08:31:47;7.95;;;5.85;;
27365;SDS011;14837;57.148;-2.144;2023-06-14T08:34:14;7.38;;;5.50;;
27365;SDS011;14837;57.148;-2.144;2023-06-14T08:36:40;6.32;;;5.28;;
27365;SDS011;14837;57.148;-2.144;2023-06-14T08:39:07;7.53;;;5.13;;
27365;SDS011;14837;57.148;-2.144;2023-06-14T08:41:35;7.72;;;5.07;;
27365;SDS011;14837;57.148;-2.144;2023-06-14T08:44:02;8.27;;;5.78;;
27365;SDS011;14837;57.148;-2.144;2023-06-14T08:46:28;7.63;;;5.28;;
27365;SDS011;14837;57.148;-2.144;2023-06-14T08:48:59;6.65;;;5.97;;
27365;SDS011;14837;57.148;-2.144;2023-06-14T08:51:25;6.90;;;5.10;;
27365;SDS011;14837;57.148;-2.144;2023-06-14T08:54:00;6.88;;;5.25;;
27365;SDS011;14837;57.148;-2.144;2023-06-14T08:56:28;8.65;;;5.10;;
27365;SDS011;14837;57.148;-2.144;2023-06-14T08:58:56;8.05;;;5.80;;
27365;SDS011;14837;57.148;-2.144;2023-06-14T09:01:23;6.30;;;4.97;;
27365;SDS011;14837;57.148;-2.144;2023-06-14T09:03:50;5.10;;;4.28;;
27365;SDS011;14837;57.148;-2.144;2023-06-14T09:06:17;6.40;;;5.68;;
27365;SDS011;14837;57.148;-2.144;2023-06-14T09:08:45;9.07;;;5.43;;
27365;SDS011;14837;57.148;-2.144;2023-06-14T09:11:14;5.35;;;4.55;;
27365;SDS011;14837;57.148;-2.144;2023-06-14T09:13:41;7.82;;;5.25;;
27365;SDS011;14837;57.148;-2.144;2023-06-14T09:16:08;8.18;;;4.88;;
27365;SDS011;14837;57.148;-2.144;2023-06-14T09:18:35;6.03;;;4.57;;
27365;SDS011;14837;57.148;-2.144;2023-06-14T09:21:02;7.30;;;5.90;;
27365;SDS011;14837;57.148;-2.144;2023-06-14T09:23:29;6.55;;;5.35;;
27365;SDS011;14837;57.148;-2.144;2023-06-14T09:25:55;5.90;;;5.03;;
27365;SDS011;14837;57.148;-2.144;2023-06-14T09:28:26;6.35;;;5.38;;
27365;SDS011;14837;57.148;-2.144;2023-06-14T09:30:53;6.72;;;5.25;;
27365;SDS011;14837;57.148;-2.144;2023-06-14T09:33:19;6.25;;;5.65;;
27365;SDS011;14837;57.148;-2.144;2023-06-14T09:35:50;6.88;;;5.35;;
27365;SDS011;14837;57.148;-2.144;2023-06-14T09:38:17;9.88;;;5.55;;
27365;SDS011;14837;57.148;-2.144;2023-06-14T09:40:43;8.13;;;5.35;;
27365;SDS011;14837;57.148;-2.144;2023-06-14T09:43:10;6.57;;;4.78;;
27365;SDS011;14837;57.148;-2.144;2023-06-14T09:45:38;8.75;;;5.25;;
27365;SDS011;14837;57.148;-2.144;2023-06-14T09:48:06;5.80;;;5.22;;
27365;SDS011;14837;57.148;-2.144;2023-06-14T09:50:34;12.20;;;6.57;;
27365;SDS011;14837;57.148;-2.144;2023-06-14T09:53:10;6.85;;;5.28;;
27365;SDS011;14837;57.148;-2.144;2023-06-14T09:55:37;9.70;;;6.15;;
27365;SDS011;14837;57.148;-2.144;2023-06-14T09:58:05;7.53;;;5.20;;
27365;SDS011;14837;57.148;-2.144;2023-06-14T10:00:34;5.60;;;5.10;;
27365;SDS011;14837;57.148;-2.144;2023-06-14T10:03:03;9.50;;;5.45;;
27365;SDS011;14837;57.148;-2.144;2023-06-14T10:05:33;6.03;;;4.88;;
27365;SDS011;14837;57.148;-2.144;2023-06-14T10:08:05;6.38;;;5.65;;
27365;SDS011;14837;57.148;-2.144;2023-06-14T10:10:34;6.75;;;5.43;;
27365;SDS011;14837;57.148;-2.144;2023-06-14T10:13:00;5.68;;;5.15;;
27365;SDS011;14837;57.148;-2.144;2023-06-14T10:16:15;8.90;;;5.43;;
27365;SDS011;14837;57.148;-2.144;2023-06-14T10:23:16;6.03;;;5.43;;
27365;SDS011;14837;57.148;-2.144;2023-06-14T10:25:44;6.32;;;5.03;;
27365;SDS011;14837;57.148;-2.144;2023-06-14T10:28:20;5.47;;;4.80;;
27365;SDS011;14837;57.148;-2.144;2023-06-14T10:31:07;6.10;;;4.55;;
27365;SDS011;14837;57.148;-2.144;2023-06-14T10:36:24;5.57;;;4.60;;
27365;SDS011;14837;57.148;-2.144;2023-06-14T10:41:28;6.03;;;5.40;;
27365;SDS011;14837;57.148;-2.144;2023-06-14T10:46:40;6.22;;;4.53;;
27365;SDS011;14837;57.148;-2.144;2023-06-14T10:49:12;6.03;;;4.95;;
27365;SDS011;14837;57.148;-2.144;2023-06-14T10:51:39;5.13;;;4.70;;
27365;SDS011;14837;57.148;-2.144;2023-06-14T10:54:12;7.38;;;5.10;;
27365;SDS011;14837;57.148;-2.144;2023-06-14T10:56:49;7.43;;;4.43;;
27365;SDS011;14837;57.148;-2.144;2023-06-14T10:59:15;9.20;;;4.68;;
27365;SDS011;14837;57.148;-2.144;2023-06-14T11:04:33;5.63;;;5.13;;
27365;SDS011;14837;57.148;-2.144;2023-06-14T11:07:07;5.32;;;4.82;;
27365;SDS011;14837;57.148;-2.144;2023-06-14T11:12:38;5.30;;;4.70;;
27365;SDS011;14837;57.148;-2.144;2023-06-14T11:15:06;6.75;;;4.20;;
27365;SDS011;14837;57.148;-2.144;2023-06-14T11:17:33;6.88;;;4.05;;
27365;SDS011;14837;57.148;-2.144;2023-06-14T11:20:12;5.97;;;4.45;;
27365;SDS011;14837;57.148;-2.144;2023-06-14T11:22:46;7.97;;;4.72;;
27365;SDS011;14837;57.148;-2.144;2023-06-14T11:25:13;6.68;;;4.30;;
27365;SDS011;14837;57.148;-2.144;2023-06-14T11:27:43;4.78;;;4.32;;
27365;SDS011;14837;57.148;-2.144;2023-06-14T11:30:11;4.95;;;3.95;;
27365;SDS011;14837;57.148;-2.144;2023-06-14T11:32:38;5.15;;;4.57;;
27365;SDS011;14837;57.148;-2.144;2023-06-14T11:35:05;6.05;;;4.97;;
27365;SDS011;14837;57.148;-2.144;2023-06-14T11:37:31;5.38;;;4.88;;
27365;SDS011;14837;57.148;-2.144;2023-06-14T11:40:01;9.95;;;4.95;;
27365;SDS011;14837;57.148;-2.144;2023-06-14T11:42:30;4.97;;;4.45;;
27365;SDS011;14837;57.148;-2.144;2023-06-14T11:44:56;5.43;;;4.80;;
27365;SDS011;14837;57.148;-2.144;2023-06-14T11:47:38;5.25;;;4.20;;
27365;SDS011;14837;57.148;-2.144;2023-06-14T11:50:05;7.68;;;4.88;;
27365;SDS011;14837;57.148;-2.144;2023-06-14T11:52:32;5.15;;;4.68;;
27365;SDS011;14837;57.148;-2.144;2023-06-14T11:54:59;7.97;;;5.03;;
27365;SDS011;14837;57.148;-2.144;2023-06-14T11:57:26;6.00;;;4.75;;
27365;SDS011;14837;57.148;-2.144;2023-06-14T11:59:54;4.97;;;4.38;;
27365;SDS011;14837;57.148;-2.144;2023-06-14T12:02:21;6.78;;;4.88;;
27365;SDS011;14837;57.148;-2.144;2023-06-14T12:04:50;7.85;;;5.22;;
27365;SDS011;14837;57.148;-2.144;2023-06-14T12:07:17;4.57;;;4.15;;
27365;SDS011;14837;57.148;-2.144;2023-06-14T12:12:25;5.03;;;4.28;;
27365;SDS011;14837;57.148;-2.144;2023-06-14T12:14:52;5.80;;;5.30;;
27365;SDS011;14837;57.148;-2.144;2023-06-14T12:17:19;5.68;;;4.93;;
27365;SDS011;14837;57.148;-2.144;2023-06-14T12:19:46;5.55;;;4.55;;
27365;SDS011;14837;57.148;-2.144;2023-06-14T12:22:13;5.28;;;4.50;;
27365;SDS011;14837;57.148;-2.144;2023-06-14T12:24:43;6.30;;;4.60;;
27365;SDS011;14837;57.148;-2.144;2023-06-14T12:27:10;5.22;;;4.72;;
27365;SDS011;14837;57.148;-2.144;2023-06-14T12:29:42;5.85;;;4.18;;
27365;SDS011;14837;57.148;-2.144;2023-06-14T12:32:11;5.60;;;4.63;;
27365;SDS011;14837;57.148;-2.144;2023-06-14T12:34:38;5.47;;;4.97;;
27365;SDS011;14837;57.148;-2.144;2023-06-14T12:37:04;5.57;;;5.07;;
27365;SDS011;14837;57.148;-2.144;2023-06-14T12:39:32;6.40;;;4.72;;
27365;SDS011;14837;57.148;-2.144;2023-06-14T12:41:59;6.43;;;4.22;;
27365;SDS011;14837;57.148;-2.144;2023-06-14T12:44:26;6.10;;;4.63;;
27365;SDS011;14837;57.148;-2.144;2023-06-14T12:46:52;5.70;;;4.22;;
27365;SDS011;14837;57.148;-2.144;2023-06-14T12:49:21;4.95;;;4.40;;
27365;SDS011;14837;57.148;-2.144;2023-06-14T12:51:48;7.68;;;4.28;;
27365;SDS011;14837;57.148;-2.144;2023-06-14T12:54:14;5.97;;;4.82;;
27365;SDS011;14837;57.148;-2.144;2023-06-14T12:56:51;6.00;;;4.20;;
27365;SDS011;14837;57.148;-2.144;2023-06-14T12:59:18;4.22;;;3.83;;
27365;SDS011;14837;57.148;-2.144;2023-06-14T13:01:44;6.75;;;4.15;;
27365;SDS011;14837;57.148;-2.144;2023-06-14T13:04:11;4.90;;;4.20;;
27365;SDS011;14837;57.148;-2.144;2023-06-14T13:06:38;8.95;;;3.70;;
27365;SDS011;14837;57.148;-2.144;2023-06-14T13:09:04;4.93;;;3.47;;
27365;SDS011;14837;57.148;-2.144;2023-06-14T13:11:31;4.75;;;4.13;;
27365;SDS011;14837;57.148;-2.144;2023-06-14T13:13:58;4.70;;;4.07;;
27365;SDS011;14837;57.148;-2.144;2023-06-14T13:16:29;10.35;;;4.05;;
27365;SDS011;14837;57.148;-2.144;2023-06-14T13:18:56;5.88;;;3.80;;
27365;SDS011;14837;57.148;-2.144;2023-06-14T13:21:22;4.60;;;4.07;;
27365;SDS011;14837;57.148;-2.144;2023-06-14T13:23:49;3.92;;;3.53;;
27365;SDS011;14837;57.148;-2.144;2023-06-14T13:26:16;6.78;;;3.50;;
27365;SDS011;14837;57.148;-2.144;2023-06-14T13:28:44;5.20;;;3.20;;
27365;SDS011;14837;57.148;-2.144;2023-06-14T13:31:11;3.72;;;3.38;;
27365;SDS011;14837;57.148;-2.144;2023-06-14T13:33:38;4.45;;;3.70;;
27365;SDS011;14837;57.148;-2.144;2023-06-14T13:36:04;6.15;;;3.75;;
27365;SDS011;14837;57.148;-2.144;2023-06-14T13:38:31;6.90;;;4.00;;
27365;SDS011;14837;57.148;-2.144;2023-06-14T13:40:57;5.10;;;3.40;;
27365;SDS011;14837;57.148;-2.144;2023-06-14T13:43:24;3.47;;;3.13;;
27365;SDS011;14837;57.148;-2.144;2023-06-14T13:45:51;3.78;;;3.38;;
27365;SDS011;14837;57.148;-2.144;2023-06-14T13:48:17;4.60;;;2.90;;
27365;SDS011;14837;57.148;-2.144;2023-06-14T13:50:44;4.03;;;2.90;;
27365;SDS011;14837;57.148;-2.144;2023-06-14T13:53:12;4.03;;;2.90;;
27365;SDS011;14837;57.148;-2.144;2023-06-14T13:55:40;3.00;;;2.55;;
27365;SDS011;14837;57.148;-2.144;2023-06-14T13:58:06;3.13;;;2.58;;
27365;SDS011;14837;57.148;-2.144;2023-06-14T14:00:33;4.03;;;2.42;;
27365;SDS011;14837;57.148;-2.144;2023-06-14T14:03:00;3.90;;;2.22;;
27365;SDS011;14837;57.148;-2.144;2023-06-14T14:05:27;6.38;;;2.78;;
27365;SDS011;14837;57.148;-2.144;2023-06-14T14:07:56;3.85;;;2.72;;
27365;SDS011;14837;57.148;-2.144;2023-06-14T14:10:24;4.35;;;2.10;;
27365;SDS011;14837;57.148;-2.144;2023-06-14T14:12:51;3.00;;;2.53;;
27365;SDS011;14837;57.148;-2.144;2023-06-14T14:15:19;3.00;;;2.10;;
27365;SDS011;14837;57.148;-2.144;2023-06-14T14:17:45;2.78;;;2.00;;
27365;SDS011;14837;57.148;-2.144;2023-06-14T14:20:13;2.85;;;2.40;;
27365;SDS011;14837;57.148;-2.144;2023-06-14T14:22:42;2.40;;;2.17;;
27365;SDS011;14837;57.148;-2.144;2023-06-14T14:25:09;4.82;;;2.58;;
27365;SDS011;14837;57.148;-2.144;2023-06-14T14:27:36;2.65;;;2.20;;
27365;SDS011;14837;57.148;-2.144;2023-06-14T14:30:04;2.45;;;2.03;;
27365;SDS011;14837;57.148;-2.144;2023-06-14T14:32:30;7.25;;;2.13;;
27365;SDS011;14837;57.148;-2.144;2023-06-14T14:34:57;2.72;;;2.47;;
27365;SDS011;14837;57.148;-2.144;2023-06-14T14:37:24;2.40;;;1.85;;
27365;SDS011;14837;57.148;-2.144;2023-06-14T14:39:51;3.38;;;2.22;;
27365;SDS011;14837;57.148;-2.144;2023-06-14T14:42:17;2.80;;;2.28;;
27365;SDS011;14837;57.148;-2.144;2023-06-14T14:44:44;5.68;;;2.42;;
27365;SDS011;14837;57.148;-2.144;2023-06-14T14:47:11;2.90;;;2.25;;
27365;SDS011;14837;57.148;-2.144;2023-06-14T14:49:38;2.42;;;2.10;;
27365;SDS011;14837;57.148;-2.144;2023-06-14T14:52:04;5.30;;;2.33;;
27365;SDS011;14837;57.148;-2.144;2023-06-14T14:54:48;5.68;;;2.05;;
27365;SDS011;14837;57.148;-2.144;2023-06-14T14:57:14;4.68;;;2.33;;
27365;SDS011;14837;57.148;-2.144;2023-06-14T14:59:41;3.65;;;2.58;;
27365;SDS011;14837;57.148;-2.144;2023-06-14T15:02:08;3.05;;;2.03;;